createdAt,value
2019-05-10T00:01:00.755Z,74.49
2019-05-10T00:03:47.915Z,74.54
2019-05-10T00:06:35.133Z,75.12
2019-05-10T00:09:05.286Z,75.18
2019-05-10T00:11:44.043Z,74.86
2019-05-10T00:14:13.554Z,75.09
2019-05-10T00:16:43.793Z,75.05
2019-05-10T00:19:13.445Z,75.04
2019-05-10T00:21:43.162Z,75.00
2019-05-10T00:24:12.816Z,75.55
2019-05-10T00:26:42.657Z,75.99
2019-05-10T00:29:12.301Z,75.45
2019-05-10T00:31:41.899Z,75.42
2019-05-10T00:34:11.558Z,75.64
2019-05-10T00:36:41.166Z,75.63
2019-05-10T00:39:10.809Z,75.56
2019-05-10T00:41:40.466Z,75.76
2019-05-10T00:44:10.113Z,76.06
2019-05-10T00:46:39.777Z,75.95
2019-05-10T00:49:09.381Z,76.20
2019-05-10T00:51:39.083Z,76.02
2019-05-10T00:54:08.783Z,76.26
2019-05-10T00:56:38.489Z,75.92
2019-05-10T00:59:08.129Z,75.86
2019-05-10T01:01:37.732Z,76.06
2019-05-10T01:05:26.082Z,76.16
2019-05-10T01:07:55.806Z,76.00
2019-05-10T01:10:25.465Z,76.28
2019-05-10T01:12:55.328Z,76.26
2019-05-10T01:15:25.015Z,76.48
2019-05-10T01:17:54.782Z,76.09
2019-05-10T01:20:24.391Z,76.31
2019-05-10T01:22:54.077Z,76.36
2019-05-10T01:25:34.538Z,76.35
2019-05-10T01:27:56.773Z,76.24
2019-05-10T01:30:26.613Z,76.21
2019-05-10T01:32:56.755Z,75.95
2019-05-10T01:35:26.596Z,76.10
2019-05-10T01:37:56.275Z,76.19
2019-05-10T01:40:26.122Z,76.04
2019-05-10T01:42:55.827Z,76.32
2019-05-10T01:45:25.507Z,76.40
2019-05-10T01:47:55.228Z,76.49
2019-05-10T01:50:24.931Z,76.27
2019-05-10T01:52:54.579Z,76.88
2019-05-10T01:55:24.210Z,76.41
2019-05-10T01:57:54.004Z,76.57
2019-05-10T02:00:23.819Z,76.46
2019-05-10T02:02:53.481Z,76.57
2019-05-10T02:05:23.240Z,76.28
2019-05-10T02:07:52.959Z,76.31
2019-05-10T02:10:22.738Z,76.47
2019-05-10T02:12:52.275Z,76.57
2019-05-10T02:15:22.157Z,76.87
2019-05-10T02:17:52.050Z,77.33
2019-05-10T02:20:21.736Z,77.53
2019-05-10T02:22:51.723Z,77.16
2019-05-10T02:25:21.398Z,76.66
2019-05-10T02:27:51.263Z,77.13
2019-05-10T02:30:21.013Z,76.97
2019-05-10T02:32:50.677Z,77.26
2019-05-10T02:35:20.318Z,77.09
2019-05-10T02:37:49.972Z,77.01
2019-05-10T02:40:20.037Z,77.06
2019-05-10T02:42:49.838Z,77.38
2019-05-10T02:45:19.943Z,77.65
2019-05-10T02:47:49.703Z,77.39
2019-05-10T02:50:19.933Z,77.16
2019-05-10T02:52:49.687Z,77.12
2019-05-10T02:55:19.513Z,77.56
2019-05-10T02:57:49.744Z,77.43
2019-05-10T03:00:19.997Z,77.89
2019-05-10T03:02:50.359Z,78.12
2019-05-10T03:05:20.018Z,78.12
2019-05-10T03:07:51.323Z,78.22
2019-05-10T03:10:21.005Z,77.95
2019-05-10T03:12:53.360Z,78.09
2019-05-10T03:15:23.234Z,78.27
2019-05-10T03:17:55.922Z,78.00
2019-05-10T03:20:26.159Z,78.06
2019-05-10T03:22:57.039Z,78.06
2019-05-10T03:25:26.795Z,78.36
2019-05-10T03:27:58.409Z,78.19
2019-05-10T03:30:28.509Z,77.90
2019-05-10T03:32:58.558Z,77.66
2019-05-10T03:35:28.397Z,77.46
2019-05-10T03:37:58.744Z,77.34
2019-05-10T03:40:29.019Z,77.44
2019-05-10T03:42:59.211Z,77.50
2019-05-10T03:45:29.468Z,77.30
2019-05-10T03:47:59.451Z,77.14
2019-05-10T03:50:29.614Z,77.24
2019-05-10T03:52:59.771Z,77.32
2019-05-10T03:55:29.970Z,77.31
2019-05-10T03:58:00.179Z,77.62
2019-05-10T04:00:30.387Z,77.34
2019-05-10T04:03:00.708Z,77.67
2019-05-10T04:05:31.020Z,77.57
2019-05-10T04:08:01.183Z,78.13
2019-05-10T04:10:31.601Z,78.35
2019-05-10T04:13:02.107Z,78.97
2019-05-10T04:15:32.263Z,78.61
2019-05-10T04:18:02.516Z,78.35
2019-05-10T04:20:32.652Z,78.70
2019-05-10T04:23:02.914Z,78.54
2019-05-10T04:25:33.155Z,78.80
2019-05-10T04:28:03.670Z,79.28
2019-05-10T04:30:34.032Z,79.29
2019-05-10T04:33:37.484Z,78.97
2019-05-10T04:36:12.062Z,78.89
2019-05-10T04:38:39.696Z,79.17
2019-05-10T04:41:10.025Z,78.99
2019-05-10T04:43:40.287Z,78.50
2019-05-10T04:46:10.502Z,78.50
2019-05-10T04:48:40.729Z,78.34
2019-05-10T04:51:11.138Z,78.22
2019-05-10T04:53:41.719Z,77.53
2019-05-10T04:56:11.777Z,77.29
2019-05-10T04:58:41.816Z,77.33
2019-05-10T05:01:12.046Z,77.52
2019-05-10T05:03:42.388Z,76.91
2019-05-10T05:06:12.752Z,76.90
2019-05-10T05:08:43.186Z,77.34
2019-05-10T05:11:13.406Z,77.24
2019-05-10T05:13:43.760Z,76.59
2019-05-10T05:16:14.105Z,76.73
2019-05-10T05:18:44.474Z,76.20
2019-05-10T05:21:14.855Z,75.92
2019-05-10T05:23:45.125Z,76.44
2019-05-10T05:26:15.525Z,75.76
2019-05-10T05:28:45.867Z,75.43
2019-05-10T05:31:15.987Z,75.05
2019-05-10T05:33:46.103Z,74.70
2019-05-10T05:36:16.405Z,74.53
2019-05-10T05:38:49.374Z,73.67
2019-05-10T05:41:18.806Z,72.51
2019-05-10T05:43:49.264Z,71.34
2019-05-10T05:46:19.639Z,70.95
2019-05-10T05:48:51.628Z,68.92
2019-05-10T05:51:21.227Z,70.00
2019-05-10T05:53:51.770Z,68.97
2019-05-10T05:56:22.119Z,69.55
2019-05-10T05:58:52.155Z,69.29
2019-05-10T06:01:26.201Z,68.54
2019-05-10T06:03:53.391Z,67.62
2019-05-10T06:06:23.735Z,66.13
2019-05-10T06:08:54.628Z,67.64
2019-05-10T06:11:29.740Z,67.88
2019-05-10T06:14:03.590Z,66.85
2019-05-10T06:16:30.481Z,66.09
2019-05-10T06:19:00.789Z,66.28
2019-05-10T06:21:30.858Z,64.67
2019-05-10T06:24:01.113Z,64.58
2019-05-10T06:26:31.414Z,63.27
2019-05-10T06:29:04.487Z,63.73
2019-05-10T06:31:33.633Z,64.26
2019-05-10T06:34:03.755Z,64.26
2019-05-10T06:36:34.132Z,65.02
2019-05-10T06:39:06.315Z,64.61
2019-05-10T06:41:35.675Z,64.22
2019-05-10T06:44:06.022Z,63.95
2019-05-10T06:46:36.339Z,64.47
2019-05-10T06:49:09.647Z,65.79
2019-05-10T06:51:42.963Z,64.59
2019-05-10T06:54:10.641Z,64.54
2019-05-10T06:56:40.843Z,65.23
2019-05-10T06:59:13.839Z,65.73
2019-05-10T07:01:45.898Z,64.78
2019-05-10T07:04:14.124Z,64.94
2019-05-10T07:06:44.380Z,66.13
2019-05-10T07:09:14.914Z,65.30
2019-05-10T07:11:45.243Z,65.03
2019-05-10T07:14:15.742Z,65.68
2019-05-10T07:16:46.242Z,64.38
2019-05-10T07:19:17.104Z,63.98
2019-05-10T07:21:51.054Z,65.37
2019-05-10T07:24:25.466Z,64.83
2019-05-10T07:26:51.270Z,63.12
2019-05-10T07:29:30.025Z,62.68
2019-05-10T07:31:52.786Z,63.76
2019-05-10T07:34:23.077Z,63.06
2019-05-10T07:36:53.351Z,60.99
2019-05-10T07:39:23.723Z,60.68
2019-05-10T07:41:54.037Z,60.39
2019-05-10T07:44:24.622Z,60.42
2019-05-10T07:46:58.328Z,60.17
2019-05-10T07:49:30.253Z,62.76
2019-05-10T07:52:02.077Z,61.86
2019-05-10T07:54:30.733Z,60.45
2019-05-10T07:57:01.019Z,60.22
2019-05-10T07:59:41.959Z,58.54
2019-05-10T08:02:05.960Z,59.19
2019-05-10T08:04:35.052Z,59.73
2019-05-10T08:07:07.584Z,59.18
2019-05-10T08:09:44.643Z,58.10
2019-05-10T08:12:09.846Z,58.53
2019-05-10T08:14:44.466Z,56.84
2019-05-10T08:17:12.370Z,58.40
2019-05-10T08:19:42.575Z,57.16
2019-05-10T08:22:14.802Z,56.21
2019-05-10T08:24:52.713Z,55.14
2019-05-10T08:27:17.005Z,55.88
2019-05-10T08:29:52.977Z,56.78
2019-05-10T08:32:24.144Z,56.03
2019-05-10T08:34:53.150Z,54.06
2019-05-10T08:37:31.057Z,55.40
2019-05-10T08:39:55.981Z,54.78
2019-05-10T08:42:41.897Z,54.50
2019-05-10T08:45:03.828Z,54.26
2019-05-10T08:47:32.173Z,52.50
2019-05-10T08:50:18.432Z,51.29
2019-05-10T08:52:34.117Z,53.45
2019-05-10T08:55:06.333Z,52.20
2019-05-10T08:57:43.398Z,51.37
2019-05-10T09:00:13.075Z,52.95
2019-05-10T09:02:42.945Z,53.39
2019-05-10T09:05:13.657Z,54.01
2019-05-10T09:07:45.384Z,53.25
2019-05-10T09:10:15.889Z,54.43
2019-05-10T09:12:51.122Z,53.98
2019-05-10T09:15:18.103Z,52.25
2019-05-10T09:17:48.412Z,52.60
2019-05-10T09:20:21.778Z,52.01
2019-05-10T09:22:52.871Z,51.57
2019-05-10T09:25:28.756Z,50.33
2019-05-10T09:27:54.198Z,50.00
2019-05-10T09:30:37.090Z,50.75
2019-05-10T09:33:10.349Z,50.08
2019-05-10T09:35:43.673Z,50.30
2019-05-10T09:38:12.498Z,50.64
2019-05-10T09:40:51.175Z,51.06
2019-05-10T09:43:14.977Z,50.49
2019-05-10T09:45:45.341Z,50.79
2019-05-10T09:48:15.723Z,51.37
2019-05-10T09:50:46.953Z,50.59
2019-05-10T09:53:25.500Z,48.96
2019-05-10T09:55:55.330Z,50.10
2019-05-10T09:58:22.465Z,49.84
2019-05-10T10:00:52.975Z,49.97
2019-05-10T10:03:23.311Z,49.72
2019-05-10T10:05:55.073Z,50.27
2019-05-10T10:08:28.109Z,50.42
2019-05-10T10:11:01.104Z,51.42
2019-05-10T10:13:39.293Z,52.30
2019-05-10T10:16:03.930Z,50.83
2019-05-10T10:18:33.424Z,49.94
2019-05-10T10:21:03.696Z,50.12
2019-05-10T10:23:37.804Z,49.37
2019-05-10T10:26:07.223Z,50.51
2019-05-10T10:28:49.787Z,49.29
2019-05-10T10:31:27.099Z,48.17
2019-05-10T10:33:58.222Z,48.43
2019-05-10T10:36:23.890Z,49.00
2019-05-10T10:38:53.983Z,48.04
2019-05-10T10:41:26.346Z,47.15
2019-05-10T10:43:58.335Z,45.37
2019-05-10T10:46:28.295Z,45.51
2019-05-10T10:48:58.472Z,45.66
2019-05-10T10:51:32.089Z,45.42
2019-05-10T10:54:00.989Z,44.16
2019-05-10T10:56:31.245Z,44.62
2019-05-10T10:59:01.621Z,38.23
2019-05-10T11:01:46.303Z,38.98
2019-05-10T11:04:07.996Z,39.06
2019-05-10T11:06:34.885Z,38.92
2019-05-10T11:09:07.829Z,39.97
2019-05-10T11:11:39.268Z,42.15
2019-05-10T11:14:11.082Z,40.60
2019-05-10T11:16:41.524Z,39.40
2019-05-10T11:19:15.522Z,37.63
2019-05-10T11:21:43.794Z,37.69
2019-05-10T11:24:18.214Z,40.14
2019-05-10T11:26:46.164Z,39.11
2019-05-10T11:29:22.977Z,39.91
2019-05-10T11:32:09.056Z,39.45
2019-05-10T11:34:21.659Z,37.42
2019-05-10T11:36:52.082Z,36.90
2019-05-10T11:39:26.499Z,37.12
2019-05-10T11:42:02.184Z,36.79
2019-05-10T11:44:25.949Z,35.86
2019-05-10T11:47:01.481Z,37.29
2019-05-10T11:49:43.540Z,36.36
2019-05-10T11:52:29.232Z,36.47
2019-05-10T11:55:11.412Z,36.26
2019-05-10T11:57:44.124Z,36.23
2019-05-10T12:00:24.663Z,35.33
2019-05-10T12:03:03.211Z,35.51
2019-05-10T12:05:20.506Z,36.05
2019-05-10T12:07:51.284Z,34.23
2019-05-10T12:10:24.891Z,34.99
2019-05-10T12:13:06.528Z,33.91
2019-05-10T12:15:25.665Z,33.05
2019-05-10T12:17:59.537Z,33.98
2019-05-10T12:20:46.398Z,34.08
2019-05-10T12:23:03.415Z,34.29
2019-05-10T12:25:46.930Z,34.96
2019-05-10T12:28:02.524Z,35.32
2019-05-10T12:30:35.343Z,33.84
2019-05-10T12:33:09.542Z,33.42
2019-05-10T12:35:41.867Z,33.28
2019-05-10T12:38:11.210Z,34.37
2019-05-10T12:40:42.492Z,33.18
2019-05-10T12:43:12.833Z,33.30
2019-05-10T12:45:43.085Z,33.35
2019-05-10T12:48:13.306Z,34.50
2019-05-10T12:50:44.223Z,34.22
2019-05-10T12:53:18.392Z,35.01
2019-05-10T12:55:46.876Z,36.06
2019-05-10T12:58:17.491Z,34.02
2019-05-10T13:00:52.525Z,34.30
2019-05-10T13:03:19.832Z,34.56
2019-05-10T13:05:52.908Z,33.85
2019-05-10T13:08:22.718Z,33.58
2019-05-10T13:10:52.987Z,34.09
2019-05-10T13:13:27.121Z,35.60
2019-05-10T13:15:55.229Z,33.37
2019-05-10T13:18:49.135Z,33.29
2019-05-10T13:20:57.518Z,34.61
2019-05-10T13:23:27.788Z,35.72
2019-05-10T13:25:58.166Z,36.01
2019-05-10T13:28:28.537Z,35.28
2019-05-10T13:30:59.868Z,34.56
2019-05-10T13:33:40.716Z,34.21
2019-05-10T13:36:02.023Z,33.38
2019-05-10T13:38:36.820Z,33.25
2019-05-10T13:41:04.283Z,32.94
2019-05-10T13:43:34.376Z,33.11
2019-05-10T13:46:04.562Z,32.63
2019-05-10T13:48:34.965Z,32.35
2019-05-10T13:51:05.241Z,32.79
2019-05-10T13:53:35.586Z,33.17
2019-05-10T13:56:05.784Z,33.37
2019-05-10T13:58:35.999Z,33.22
2019-05-10T14:01:12.375Z,32.80
2019-05-10T14:03:45.205Z,32.22
2019-05-10T14:06:09.133Z,30.79
2019-05-10T14:08:42.972Z,30.39
2019-05-10T14:11:11.276Z,30.39
2019-05-10T14:13:43.199Z,31.11
2019-05-10T14:16:18.247Z,32.35
2019-05-10T14:18:45.157Z,30.53
2019-05-10T14:21:15.342Z,30.97
2019-05-10T14:23:45.535Z,30.87
2019-05-10T14:26:18.189Z,31.87
2019-05-10T14:28:53.263Z,33.27
2019-05-10T14:31:19.596Z,33.29
2019-05-10T14:34:14.338Z,32.64
2019-05-10T14:36:21.687Z,32.44
2019-05-10T14:38:53.986Z,33.78
2019-05-10T14:41:23.166Z,33.57
2019-05-10T14:43:53.471Z,33.92
2019-05-10T14:46:23.681Z,33.57
2019-05-10T14:48:54.019Z,33.68
2019-05-10T14:51:40.384Z,33.90
2019-05-10T14:53:58.355Z,34.58
2019-05-10T14:56:28.385Z,34.60
2019-05-10T14:58:58.788Z,34.15
2019-05-10T15:01:29.402Z,34.30
2019-05-10T15:03:59.529Z,35.34
2019-05-10T15:06:30.777Z,35.19
2019-05-10T15:09:02.196Z,36.05
2019-05-10T15:11:33.265Z,36.21
2019-05-10T15:14:05.039Z,36.63
2019-05-10T15:16:35.486Z,36.84
2019-05-10T15:19:05.766Z,36.73
2019-05-10T15:21:36.084Z,37.09
2019-05-10T15:24:06.303Z,37.62
2019-05-10T15:26:37.504Z,37.68
2019-05-10T15:29:08.461Z,38.17
2019-05-10T15:31:38.985Z,38.23
2019-05-10T15:34:09.107Z,38.51
2019-05-10T15:36:39.271Z,39.07
2019-05-10T15:39:09.571Z,39.17
2019-05-10T15:41:39.868Z,40.30
2019-05-10T15:44:10.043Z,40.09
2019-05-10T15:46:42.375Z,40.05
2019-05-10T15:49:13.386Z,41.49
2019-05-10T15:51:49.083Z,40.78
2019-05-10T15:54:15.290Z,42.23
2019-05-10T15:56:45.597Z,42.85
2019-05-10T15:59:19.467Z,41.81
2019-05-10T16:01:47.427Z,40.28
2019-05-10T16:04:17.929Z,40.64
2019-05-10T16:06:48.157Z,40.74
2019-05-10T16:09:19.329Z,40.67
2019-05-10T16:11:49.890Z,41.11
2019-05-10T16:14:20.043Z,41.20
2019-05-10T16:16:50.209Z,40.59
2019-05-10T16:19:20.529Z,40.68
2019-05-10T16:21:52.037Z,41.26
2019-05-10T16:24:26.481Z,40.92
2019-05-10T16:26:59.895Z,41.42
2019-05-10T16:29:26.542Z,41.40
2019-05-10T16:31:56.644Z,41.67
2019-05-10T16:34:32.360Z,42.06
2019-05-10T16:36:58.502Z,41.87
2019-05-10T16:39:28.854Z,41.73
2019-05-10T16:41:59.063Z,41.28
2019-05-10T16:44:29.542Z,41.29
2019-05-10T16:46:59.957Z,41.66
2019-05-10T16:49:30.252Z,41.80
2019-05-10T16:52:00.617Z,43.75
2019-05-10T16:54:31.119Z,43.03
2019-05-10T16:57:01.695Z,42.75
2019-05-10T16:59:35.034Z,44.94
2019-05-10T17:02:06.270Z,45.06
2019-05-10T17:04:37.854Z,46.53
2019-05-10T17:07:13.042Z,47.05
2019-05-10T17:09:39.822Z,49.47
2019-05-10T17:12:10.243Z,49.23
2019-05-10T17:14:40.380Z,50.05
2019-05-10T17:17:10.699Z,51.05
2019-05-10T17:19:41.052Z,50.00
2019-05-10T17:22:11.969Z,50.27
2019-05-10T17:24:42.592Z,51.06
2019-05-10T17:27:12.789Z,51.28
2019-05-10T17:29:44.535Z,52.09
2019-05-10T17:32:18.879Z,52.12
2019-05-10T17:34:46.759Z,52.52
2019-05-10T17:37:16.878Z,52.29
2019-05-10T17:39:47.343Z,52.79
2019-05-10T17:42:17.536Z,52.78
2019-05-10T17:44:48.116Z,52.67
2019-05-10T17:47:18.480Z,53.25
2019-05-10T17:49:48.725Z,53.31
2019-05-10T17:52:18.971Z,54.56
2019-05-10T17:54:49.311Z,53.89
2019-05-10T17:57:19.497Z,54.38
2019-05-10T17:59:53.040Z,54.53
2019-05-10T18:02:21.975Z,54.85
2019-05-10T18:04:52.176Z,55.17
2019-05-10T18:07:22.434Z,55.36
2019-05-10T18:09:52.808Z,55.55
2019-05-10T18:12:26.766Z,54.96
2019-05-10T18:14:55.862Z,55.26
2019-05-10T18:17:27.613Z,55.12
2019-05-10T18:20:02.323Z,55.30
2019-05-10T18:22:30.024Z,55.52
2019-05-10T18:25:00.258Z,56.27
2019-05-10T18:27:30.835Z,57.86
2019-05-10T18:30:01.155Z,59.56
2019-05-10T18:32:35.363Z,60.63
2019-05-10T18:35:13.124Z,61.64
2019-05-10T18:37:34.979Z,62.50
2019-05-10T18:40:09.319Z,64.02
2019-05-10T18:42:38.667Z,64.57
2019-05-10T18:45:09.306Z,65.48
2019-05-10T18:47:39.547Z,64.68
2019-05-10T18:50:10.310Z,65.42
2019-05-10T18:52:40.667Z,65.99
2019-05-10T18:55:10.793Z,66.04
2019-05-10T18:57:45.310Z,66.59
2019-05-10T19:00:17.734Z,65.96
2019-05-10T19:02:49.659Z,66.00
2019-05-10T19:05:17.006Z,66.08
2019-05-10T19:07:47.213Z,66.70
2019-05-10T19:10:17.125Z,66.29
2019-05-10T19:12:47.666Z,66.79
2019-05-10T19:15:18.723Z,67.46
2019-05-10T19:17:48.783Z,67.32
2019-05-10T19:20:18.906Z,67.61
2019-05-10T19:22:49.040Z,68.37
2019-05-10T19:25:18.832Z,68.01
2019-05-10T19:27:50.841Z,67.82
2019-05-10T19:30:22.265Z,67.43
2019-05-10T19:32:56.290Z,67.81
2019-05-10T19:35:23.444Z,68.16
2019-05-10T19:37:53.209Z,68.47
2019-05-10T19:40:23.180Z,68.63
2019-05-10T19:42:52.928Z,68.50
2019-05-10T19:45:22.664Z,69.08
2019-05-10T19:47:55.652Z,69.27
2019-05-10T19:50:30.296Z,69.58
2019-05-10T19:52:58.478Z,69.75
2019-05-10T19:55:26.757Z,69.61
2019-05-10T19:57:56.624Z,69.64
2019-05-10T20:00:26.390Z,70.07
2019-05-10T20:02:56.128Z,70.47
2019-05-10T20:05:25.859Z,70.13
2019-05-10T20:07:55.581Z,70.40
2019-05-10T20:10:25.258Z,70.78
2019-05-10T20:12:54.953Z,71.20
2019-05-10T20:15:24.651Z,71.22
2019-05-10T20:17:54.316Z,70.95
2019-05-10T20:20:24.188Z,71.18
2019-05-10T20:22:54.488Z,71.26
2019-05-10T20:25:24.179Z,71.78
2019-05-10T20:27:53.961Z,71.74
2019-05-10T20:30:23.922Z,72.13
2019-05-10T20:32:53.602Z,72.29
2019-05-10T20:35:23.322Z,72.69
2019-05-10T20:38:01.333Z,72.56
2019-05-10T20:40:24.431Z,72.45
2019-05-10T20:42:54.111Z,72.47
2019-05-10T20:45:23.839Z,72.43
2019-05-10T20:47:53.614Z,73.13
2019-05-10T20:50:23.458Z,73.04
2019-05-10T20:52:53.317Z,73.20
2019-05-10T20:55:23.086Z,73.61
2019-05-10T20:57:52.808Z,73.45
2019-05-10T21:00:24.201Z,73.51
2019-05-10T21:02:54.124Z,73.39
2019-05-10T21:05:23.959Z,73.40
2019-05-10T21:07:53.587Z,73.34
2019-05-10T21:10:23.323Z,73.36
2019-05-10T21:12:52.933Z,72.86
2019-05-10T21:15:22.633Z,73.15
2019-05-10T21:17:52.441Z,72.65
2019-05-10T21:20:22.199Z,72.64
2019-05-10T21:22:51.863Z,72.23
2019-05-10T21:25:21.554Z,71.94
2019-05-10T21:27:51.284Z,72.03
2019-05-10T21:30:21.120Z,71.32
2019-05-10T21:32:50.821Z,71.25
2019-05-10T21:35:20.607Z,71.50
2019-05-10T21:37:50.215Z,71.59
2019-05-10T21:40:19.906Z,71.79
2019-05-10T21:42:49.600Z,71.48
2019-05-10T21:45:19.323Z,71.81
2019-05-10T21:47:51.558Z,71.68
2019-05-10T21:50:20.617Z,71.62
2019-05-10T21:52:50.202Z,71.90
2019-05-10T21:55:19.907Z,72.07
2019-05-10T21:57:49.825Z,72.29
2019-05-10T22:00:21.583Z,72.37
2019-05-10T22:02:51.465Z,72.37
2019-05-10T22:05:21.211Z,72.57
2019-05-10T22:07:51.002Z,73.07
2019-05-10T22:10:20.658Z,73.45
2019-05-10T22:12:50.282Z,73.34
2019-05-10T22:15:20.116Z,73.86
2019-05-10T22:17:49.795Z,74.07
2019-05-10T22:20:19.667Z,74.78
2019-05-10T22:22:49.179Z,74.85
2019-05-10T22:25:18.917Z,74.85
2019-05-10T22:27:48.729Z,74.97
2019-05-10T22:30:18.890Z,75.01
2019-05-10T22:32:48.712Z,75.17
2019-05-10T22:35:18.473Z,75.11
2019-05-10T22:37:48.175Z,74.86
2019-05-10T22:40:18.154Z,74.83
2019-05-10T22:42:47.954Z,74.82
2019-05-10T22:45:16.821Z,74.77
2019-05-10T22:47:46.651Z,74.68
2019-05-10T22:50:16.876Z,74.33
2019-05-10T22:52:46.520Z,74.52
2019-05-10T22:55:16.239Z,74.35
2019-05-10T22:57:45.953Z,74.73
2019-05-10T23:00:16.373Z,74.56
2019-05-10T23:02:46.102Z,74.67
2019-05-10T23:05:15.992Z,74.70
2019-05-10T23:07:45.728Z,74.85
2019-05-10T23:10:15.814Z,74.76
2019-05-10T23:12:45.534Z,73.59
2019-05-10T23:15:15.337Z,73.48
2019-05-10T23:17:45.152Z,73.67
2019-05-10T23:20:14.891Z,73.79
2019-05-10T23:22:44.648Z,73.61
2019-05-10T23:25:14.326Z,74.43
2019-05-10T23:27:44.183Z,74.34
2019-05-10T23:30:13.944Z,74.19
2019-05-10T23:32:43.785Z,74.65
2019-05-10T23:35:13.667Z,74.51
2019-05-10T23:37:43.385Z,74.40
2019-05-10T23:40:13.188Z,74.45
2019-05-10T23:42:42.992Z,74.73
2019-05-10T23:45:13.536Z,74.80
2019-05-10T23:47:43.170Z,74.79
2019-05-10T23:50:12.134Z,74.76
2019-05-10T23:52:41.937Z,75.24
2019-05-10T23:55:11.816Z,74.90
2019-05-10T23:57:41.408Z,74.79
